Time;durP1;ratioP1;P1;durP2;ratioP2;P2;SDS_P1;SDS_P2;PMS_P1;PMS_P2;Temp;Humidity;BMP_temperature;BMP_pressure;BME280_temperature;BME280_humidity;BME280_pressure;Samples;Min_cycle;Max_cycle;Signal;HPM_P1;HPM_P2
2022/11/14 00:02:21;;;;;;;0.63;0.30;;;25.80;65.10;;;;;;4115364;28;20479;-50
2022/11/14 00:04:47;;;;;;;1.30;0.30;;;25.80;65.00;;;;;;4117720;28;20129;-50
2022/11/14 00:07:10;;;;;;;0.85;0.50;;;25.80;64.80;;;;;;4115898;28;20042;-53
2022/11/14 00:09:32;;;;;;;0.43;0.40;;;25.80;64.70;;;;;;4113958;28;20042;-54
2022/11/14 00:11:55;;;;;;;1.00;0.47;;;25.80;64.70;;;;;;4107368;28;20034;-54
2022/11/14 00:14:18;;;;;;;1.67;0.30;;;25.80;64.60;;;;;;4103848;28;20093;-52
2022/11/14 00:16:40;;;;;;;1.35;0.40;;;25.80;64.50;;;;;;4114893;28;20030;-50
2022/11/14 00:19:03;;;;;;;1.05;0.50;;;25.80;64.40;;;;;;4114396;28;20694;-51
2022/11/14 00:21:25;;;;;;;0.22;0.20;;;25.80;64.20;;;;;;4109569;28;20057;-51
2022/11/14 00:23:48;;;;;;;1.08;0.30;;;25.80;64.00;;;;;;4107232;28;20084;-52
2022/11/14 00:26:10;;;;;;;0.30;0.30;;;25.90;63.80;;;;;;4120688;28;20048;-55
2022/11/14 00:28:33;;;;;;;0.90;0.40;;;25.80;63.60;;;;;;4120773;28;20156;-57
2022/11/14 00:30:55;;;;;;;0.30;0.30;;;25.80;63.50;;;;;;4124248;28;20042;-55
2022/11/14 00:33:20;;;;;;;2.40;0.57;;;25.80;63.20;;;;;;4126542;28;20041;-51
2022/11/14 00:35:50;;;;;;;1.30;0.60;;;25.80;63.30;;;;;;4119622;28;20049;-57
2022/11/14 00:38:14;;;;;;;13.15;1.10;;;25.80;63.50;;;;;;4121018;28;20046;-55
2022/11/14 00:40:37;;;;;;;0.45;0.38;;;25.80;63.40;;;;;;4122413;28;20042;-58
2022/11/14 00:42:59;;;;;;;0.90;0.35;;;25.80;63.20;;;;;;4125501;28;20081;-55
2022/11/14 00:45:22;;;;;;;1.20;0.47;;;25.80;63.40;;;;;;4127234;28;20444;-56
2022/11/14 00:47:44;;;;;;;3.22;0.57;;;25.80;63.10;;;;;;4133662;28;20046;-57
2022/11/14 00:50:07;;;;;;;0.68;0.43;;;25.80;62.10;;;;;;4133873;28;20050;-59
2022/11/14 00:52:30;;;;;;;1.15;0.52;;;25.80;61.80;;;;;;4132771;28;20110;-61
2022/11/14 00:54:52;;;;;;;2.78;0.50;;;25.80;61.80;;;;;;4131540;28;20125;-60
2022/11/14 00:57:15;;;;;;;1.30;0.82;;;25.80;62.00;;;;;;4124751;28;20048;-50
2022/11/14 00:59:37;;;;;;;1.30;0.63;;;25.80;62.00;;;;;;4120054;28;20042;-53
2022/11/14 01:02:00;;;;;;;1.25;0.50;;;25.80;62.00;;;;;;4122187;28;20128;-51
2022/11/14 01:04:23;;;;;;;2.43;0.70;;;25.90;62.00;;;;;;4128254;28;20038;-57
2022/11/14 01:06:45;;;;;;;2.95;0.50;;;25.80;62.00;;;;;;4124836;28;20100;-57
2022/11/14 01:09:09;;;;;;;4.50;0.50;;;25.80;62.00;;;;;;4129296;28;20077;-54
2022/11/14 01:11:32;;;;;;;0.63;0.40;;;25.80;61.80;;;;;;4129943;28;20038;-53
2022/11/14 01:13:55;;;;;;;0.55;0.38;;;25.80;61.70;;;;;;4122427;28;20050;-58
2022/11/14 01:16:18;;;;;;;1.35;0.40;;;25.80;61.80;;;;;;4130296;28;20041;-50
2022/11/14 01:18:40;;;;;;;;;;;25.80;62.10;;;;;;4128560;28;20065;-54
2022/11/14 01:21:08;;;;;;;1.02;0.50;;;25.80;62.10;;;;;;4130999;28;20293;-54
2022/11/14 01:23:31;;;;;;;3.92;0.50;;;25.80;61.80;;;;;;4135856;28;20045;-54
2022/11/14 01:25:54;;;;;;;3.60;0.60;;;25.80;61.70;;;;;;4122658;28;20106;-52
2022/11/14 01:28:18;;;;;;;1.27;0.43;;;25.80;61.70;;;;;;4135440;28;20049;-54
2022/11/14 01:30:41;;;;;;;1.95;0.40;;;25.80;61.70;;;;;;4130176;28;20045;-56
2022/11/14 01:33:04;;;;;;;1.48;0.30;;;25.80;61.50;;;;;;4133773;28;20462;-54
2022/11/14 01:35:27;;;;;;;1.70;0.40;;;25.80;61.50;;;;;;4133012;28;20112;-55
2022/11/14 01:37:50;;;;;;;0.60;0.50;;;25.80;61.40;;;;;;4133217;28;20053;-55
2022/11/14 01:40:12;;;;;;;1.77;0.30;;;25.70;61.20;;;;;;4132182;28;20049;-50
2022/11/14 01:42:35;;;;;;;0.43;0.30;;;25.80;61.20;;;;;;4123446;28;20449;-59
2022/11/14 01:44:58;;;;;;;2.50;0.45;;;25.70;61.20;;;;;;4115843;28;20497;-52
2022/11/14 01:47:25;;;;;;;2.30;0.68;;;25.70;61.00;;;;;;4118219;28;20176;-57
2022/11/14 01:49:54;;;;;;;1.05;0.40;;;25.70;60.70;;;;;;4123942;28;20070;-57
2022/11/14 01:52:38;;;;;;;2.00;0.50;;;25.80;60.60;;;;;;4127829;28;20448;-51
2022/11/14 01:55:04;;;;;;;1.98;0.55;;;25.80;60.90;;;;;;4125422;28;20532;-53
2022/11/14 01:57:35;;;;;;;2.05;0.60;;;25.80;60.60;;;;;;4124351;28;20030;-55
2022/11/14 02:00:04;;;;;;;0.47;0.20;;;25.80;60.60;;;;;;4124371;28;20103;-54
2022/11/14 02:02:26;;;;;;;1.02;0.20;;;25.80;60.60;;;;;;4122462;28;20034;-57
2022/11/14 02:04:55;;;;;;;1.00;0.40;;;25.80;60.70;;;;;;4121608;28;20042;-57
2022/11/14 02:07:18;;;;;;;4.80;0.70;;;25.80;60.40;;;;;;4116940;28;20091;-62
2022/11/14 02:09:44;;;;;;;4.15;0.68;;;25.90;60.50;;;;;;4129335;28;20049;-58
2022/11/14 02:12:10;;;;;;;2.97;0.57;;;25.90;59.70;;;;;;4119783;28;20030;-61
2022/11/14 02:14:34;;;;;;;2.80;0.47;;;25.90;59.60;;;;;;4127150;28;20046;-60
2022/11/14 02:16:56;;;;;;;0.35;0.35;;;25.90;58.30;;;;;;4129503;28;20096;-60
2022/11/14 02:19:19;;;;;;;0.70;0.38;;;25.80;58.70;;;;;;4130749;28;20049;-60
2022/11/14 02:21:41;;;;;;;0.55;0.30;;;25.80;58.20;;;;;;4131626;28;20100;-59
2022/11/14 02:24:09;;;;;;;0.65;0.30;;;25.80;58.00;;;;;;4129277;28;20038;-59
2022/11/14 02:26:32;;;;;;;0.45;0.40;;;25.80;57.50;;;;;;4131279;28;20049;-60
2022/11/14 02:28:56;;;;;;;0.55;0.30;;;25.80;57.50;;;;;;4130625;28;20045;-60
2022/11/14 02:31:19;;;;;;;2.40;0.40;;;25.80;57.80;;;;;;4129509;28;20038;-60
2022/11/14 02:33:42;;;;;;;1.27;0.68;;;25.80;57.60;;;;;;4129409;28;20065;-57
2022/11/14 02:36:04;;;;;;;0.60;0.40;;;25.70;57.00;;;;;;4128836;28;20088;-48
2022/11/14 02:38:27;;;;;;;0.30;0.30;;;25.70;57.80;;;;;;4116096;28;20445;-51
2022/11/14 02:40:49;;;;;;;0.35;0.30;;;25.80;57.80;;;;;;4129314;28;20041;-53
2022/11/14 02:43:12;;;;;;;0.32;0.30;;;25.80;58.10;;;;;;4130773;28;20069;-53
2022/11/14 02:45:35;;;;;;;0.70;0.40;;;25.80;57.60;;;;;;4126782;28;20034;-52
2022/11/14 02:47:57;;;;;;;1.20;0.50;;;25.90;58.10;;;;;;4132549;28;20072;-51
2022/11/14 02:50:20;;;;;;;0.60;0.30;;;25.90;57.90;;;;;;4129709;28;20323;-52
2022/11/14 02:52:42;;;;;;;0.17;0.17;;;25.90;58.00;;;;;;4125971;28;20042;-54
2022/11/14 02:55:05;;;;;;;0.40;0.30;;;25.90;58.10;;;;;;4129406;28;20045;-54
2022/11/14 02:57:28;;;;;;;0.40;0.25;;;26.00;57.90;;;;;;4130277;28;20044;-54
2022/11/14 02:59:50;;;;;;;0.52;0.30;;;26.00;57.90;;;;;;4131006;28;20055;-54
2022/11/14 03:02:13;;;;;;;0.50;0.30;;;26.00;58.00;;;;;;4127763;28;20046;-55
2022/11/14 03:04:35;;;;;;;0.28;0.28;;;26.00;57.80;;;;;;4130805;28;20213;-55
2022/11/14 03:06:58;;;;;;;0.20;0.20;;;26.00;57.90;;;;;;4124337;28;20052;-54
2022/11/14 03:09:20;;;;;;;0.32;0.32;;;26.00;58.00;;;;;;4126836;28;20050;-55
2022/11/14 03:11:43;;;;;;;0.22;0.20;;;26.00;58.20;;;;;;4132587;28;20038;-54
2022/11/14 03:14:05;;;;;;;0.63;0.20;;;26.10;58.10;;;;;;4125757;28;20372;-58
2022/11/14 03:16:28;;;;;;;0.98;0.40;;;26.10;58.10;;;;;;4132027;28;20096;-54
2022/11/14 03:18:51;;;;;;;0.38;0.30;;;26.10;58.20;;;;;;4135038;28;20042;-55
2022/11/14 03:21:16;;;;;;;0.20;0.20;;;26.10;58.10;;;;;;4120531;28;20038;-57
2022/11/14 03:23:39;;;;;;;2.45;0.40;;;26.10;58.00;;;;;;4134378;28;20556;-55
2022/11/14 03:26:02;;;;;;;0.55;0.28;;;26.10;57.80;;;;;;4134311;28;20190;-52
2022/11/14 03:28:24;;;;;;;;;;;26.20;57.80;;;;;;4131594;28;20576;-58
2022/11/14 03:30:47;;;;;;;0.52;0.30;;;26.20;58.10;;;;;;4131730;28;19909;-55
2022/11/14 03:33:09;;;;;;;0.20;0.20;;;26.20;58.00;;;;;;4131997;28;20060;-56
2022/11/14 03:35:32;;;;;;;0.75;0.40;;;26.20;57.90;;;;;;4133301;28;20038;-50
2022/11/14 03:37:54;;;;;;;0.80;0.28;;;26.20;57.70;;;;;;4131742;28;20433;-50
2022/11/14 03:40:17;;;;;;;0.28;0.22;;;26.20;57.60;;;;;;4130636;28;20046;-57
2022/11/14 03:42:39;;;;;;;0.50;0.20;;;26.30;57.60;;;;;;4135391;28;20500;-56
2022/11/14 03:45:02;;;;;;;0.43;0.30;;;26.30;57.60;;;;;;4130098;28;20508;-53
2022/11/14 03:47:25;;;;;;;0.63;0.28;;;26.30;57.50;;;;;;4131750;28;20113;-55
2022/11/14 03:49:47;;;;;;;1.00;0.40;;;26.30;57.40;;;;;;4117909;28;20474;-57
2022/11/14 03:52:11;;;;;;;0.20;0.20;;;26.40;57.60;;;;;;4128458;28;20038;-52
2022/11/14 03:54:33;;;;;;;0.40;0.30;;;26.40;57.30;;;;;;4127571;28;20038;-50
2022/11/14 03:56:56;;;;;;;1.55;0.30;;;26.40;57.20;;;;;;4131394;28;20275;-54
2022/11/14 03:59:18;;;;;;;0.93;0.30;;;26.50;56.90;;;;;;4132348;28;20041;-57
2022/11/14 04:01:41;;;;;;;0.65;0.40;;;26.50;56.80;;;;;;4133280;28;20108;-55
2022/11/14 04:04:03;;;;;;;1.20;0.30;;;26.60;57.00;;;;;;4131106;28;20034;-55
2022/11/14 04:06:26;;;;;;;2.70;0.20;;;26.60;56.90;;;;;;4132930;28;20049;-54
2022/11/14 04:08:50;;;;;;;0.38;0.20;;;26.60;56.70;;;;;;4125772;28;20049;-56
2022/11/14 04:11:13;;;;;;;0.90;0.40;;;26.60;56.70;;;;;;4131929;28;20480;-56
2022/11/14 04:13:35;;;;;;;0.20;0.20;;;26.70;56.60;;;;;;4130167;28;20076;-57
2022/11/14 04:15:59;;;;;;;1.38;0.20;;;26.70;56.60;;;;;;4127505;28;20477;-53
2022/11/14 04:18:22;;;;;;;0.30;0.30;;;26.80;56.40;;;;;;4131143;28;20389;-52
2022/11/14 04:20:44;;;;;;;0.85;0.40;;;26.80;56.20;;;;;;4129061;28;20057;-54
2022/11/14 04:23:07;;;;;;;0.30;0.30;;;26.90;56.30;;;;;;4128846;28;20528;-53
2022/11/14 04:25:29;;;;;;;0.98;0.30;;;26.90;56.20;;;;;;4129775;28;20412;-55
2022/11/14 04:27:52;;;;;;;0.30;0.30;;;27.00;56.10;;;;;;4123514;28;20049;-54
2022/11/14 04:30:14;;;;;;;0.40;0.32;;;27.00;56.00;;;;;;4125502;28;20150;-54
2022/11/14 04:32:37;;;;;;;0.47;0.32;;;27.00;55.80;;;;;;4132419;28;20038;-54
2022/11/14 04:34:59;;;;;;;2.00;0.68;;;27.10;55.80;;;;;;4129613;28;20537;-56
2022/11/14 04:37:22;;;;;;;0.85;0.45;;;27.10;55.70;;;;;;4129807;28;20050;-52
2022/11/14 04:39:44;;;;;;;0.98;0.30;;;27.10;55.60;;;;;;4130359;28;20036;-56
2022/11/14 04:42:07;;;;;;;1.90;0.50;;;27.10;55.70;;;;;;4132788;28;20548;-54
2022/11/14 04:44:30;;;;;;;1.55;0.30;;;27.20;55.90;;;;;;4132158;28;20061;-55
2022/11/14 04:46:52;;;;;;;2.33;0.52;;;27.20;55.80;;;;;;4124447;28;20092;-54
2022/11/14 04:49:15;;;;;;;0.85;0.52;;;27.20;55.80;;;;;;4126598;28;20082;-55
2022/11/14 04:51:37;;;;;;;2.92;0.45;;;27.30;55.40;;;;;;4128290;28;20038;-54
2022/11/14 04:54:00;;;;;;;0.43;0.30;;;27.30;55.40;;;;;;4129387;28;20657;-58
2022/11/14 04:56:24;;;;;;;7.25;0.57;;;27.30;55.40;;;;;;4126028;28;20038;-54
2022/11/14 04:58:46;;;;;;;0.75;0.32;;;27.40;55.40;;;;;;4121036;28;20034;-58
2022/11/14 05:01:10;;;;;;;1.13;0.30;;;27.50;55.20;;;;;;4128530;28;20049;-55
2022/11/14 05:03:33;;;;;;;5.53;0.50;;;27.50;55.20;;;;;;4128056;28;20492;-57
2022/11/14 05:06:00;;;;;;;1.50;0.38;;;27.50;55.20;;;;;;4131836;28;20140;-53
2022/11/14 05:08:23;;;;;;;0.85;0.30;;;27.50;55.20;;;;;;4129977;28;20053;-53
2022/11/14 05:10:46;;;;;;;0.75;0.32;;;27.50;55.30;;;;;;4132169;28;20386;-54
2022/11/14 05:13:08;;;;;;;0.65;0.30;;;27.50;55.10;;;;;;4133150;28;20041;-51
2022/11/14 05:15:31;;;;;;;0.45;0.30;;;27.50;55.10;;;;;;4127620;28;20038;-56
2022/11/14 05:17:53;;;;;;;0.95;0.40;;;27.40;55.40;;;;;;4127554;28;20077;-56
2022/11/14 05:20:16;;;;;;;1.92;0.50;;;27.50;55.40;;;;;;4121999;28;20121;-48
2022/11/14 05:22:39;;;;;;;2.50;0.40;;;27.50;55.40;;;;;;4112471;28;20435;-50
2022/11/14 05:25:01;;;;;;;1.75;0.43;;;27.40;55.50;;;;;;4124858;28;20393;-54
2022/11/14 05:27:24;;;;;;;0.43;0.30;;;27.50;55.60;;;;;;4111499;28;20093;-49
2022/11/14 05:29:46;;;;;;;0.20;0.20;;;27.50;55.50;;;;;;4116875;28;20050;-54
2022/11/14 05:32:10;;;;;;;0.40;0.28;;;27.50;55.60;;;;;;4126275;28;20056;-52
2022/11/14 05:34:33;;;;;;;2.35;0.50;;;27.50;55.60;;;;;;4125873;28;20385;-56
2022/11/14 05:36:55;;;;;;;1.10;0.30;;;27.50;55.50;;;;;;4127233;28;20033;-54
2022/11/14 05:39:18;;;;;;;1.13;0.30;;;27.50;55.60;;;;;;4133066;28;20041;-51
2022/11/14 05:41:40;;;;;;;0.93;0.25;;;27.50;55.70;;;;;;4120371;28;20155;-57
2022/11/14 05:44:04;;;;;;;0.98;0.20;;;27.40;55.80;;;;;;4121885;28;20088;-57
2022/11/14 05:46:27;;;;;;;0.68;0.30;;;27.40;55.70;;;;;;4124150;28;20041;-56
2022/11/14 05:48:49;;;;;;;0.63;0.35;;;27.40;55.80;;;;;;4124841;28;20053;-57
2022/11/14 05:51:13;;;;;;;2.10;0.40;;;27.40;55.70;;;;;;4123206;28;20042;-57
2022/11/14 05:53:35;;;;;;;0.57;0.30;;;27.50;55.60;;;;;;4128467;28;20037;-53
2022/11/14 05:56:07;;;;;;;1.67;0.30;;;27.40;55.70;;;;;;4122927;28;20557;-56
2022/11/14 05:58:31;;;;;;;1.42;0.40;;;27.40;55.90;;;;;;4124416;28;20053;-55
2022/11/14 06:01:01;;;;;;;0.20;0.20;;;27.40;55.70;;;;;;4117706;28;20034;-58
2022/11/14 06:03:24;;;;;;;0.47;0.35;;;27.40;55.50;;;;;;4122842;28;20078;-55
2022/11/14 06:05:46;;;;;;;2.50;0.43;;;27.40;55.60;;;;;;4123336;28;20563;-56
2022/11/14 06:08:09;;;;;;;0.95;0.40;;;27.40;55.70;;;;;;4122053;28;20207;-54
2022/11/14 06:10:37;;;;;;;2.80;0.30;;;27.50;55.70;;;;;;4126380;28;20589;-57
2022/11/14 06:13:00;;;;;;;0.80;0.30;;;27.50;55.60;;;;;;4122457;28;20045;-59
2022/11/14 06:15:22;;;;;;;2.30;0.40;;;27.50;55.60;;;;;;4123923;28;20152;-56
2022/11/14 06:17:45;;;;;;;0.63;0.28;;;27.60;55.50;;;;;;4123373;28;20476;-52
2022/11/14 06:20:09;;;;;;;0.68;0.45;;;27.50;55.40;;;;;;4122332;28;20073;-57
2022/11/14 06:22:32;;;;;;;;;;;27.60;55.40;;;;;;4125854;28;20033;-55
2022/11/14 06:24:54;;;;;;;0.38;0.38;;;27.50;55.60;;;;;;4124021;28;19947;-57
2022/11/14 06:27:17;;;;;;;1.27;0.40;;;27.60;55.40;;;;;;4122587;28;20050;-56
2022/11/14 06:29:39;;;;;;;0.45;0.30;;;27.60;55.40;;;;;;4125351;28;20045;-53
2022/11/14 06:32:02;;;;;;;2.30;0.40;;;27.60;55.40;;;;;;4127203;28;20033;-54
2022/11/14 06:34:24;;;;;;;0.30;0.30;;;27.60;55.20;;;;;;4122986;28;20049;-57
2022/11/14 06:36:47;;;;;;;0.82;0.45;;;27.60;55.10;;;;;;4128422;28;20046;-56
2022/11/14 06:39:09;;;;;;;1.98;0.43;;;27.70;54.80;;;;;;4125017;28;20395;-59
2022/11/14 06:41:32;;;;;;;4.28;0.50;;;27.70;54.60;;;;;;4122868;28;20458;-56
2022/11/14 06:43:55;;;;;;;2.25;0.40;;;27.70;54.60;;;;;;4121325;28;20064;-57
2022/11/14 06:46:19;;;;;;;1.05;0.55;;;27.70;54.80;;;;;;4109782;28;20334;-52
2022/11/14 06:48:43;;;;;;;3.80;0.70;;;27.70;55.10;;;;;;4129419;28;20049;-57
2022/11/14 06:51:07;;;;;;;2.13;0.52;;;27.70;55.00;;;;;;4124468;28;20042;-52
2022/11/14 06:53:31;;;;;;;1.20;0.70;;;27.70;55.10;;;;;;4129932;28;20061;-56
2022/11/14 06:56:19;;;;;;;0.70;0.38;;;27.80;55.20;;;;;;4126214;28;20417;-58
2022/11/14 06:58:44;;;;;;;2.53;0.45;;;27.80;55.30;;;;;;4125480;28;20093;-58
2022/11/14 07:01:18;;;;;;;2.45;0.50;;;27.80;55.20;;;;;;4130885;28;20207;-56
2022/11/14 07:03:42;;;;;;;9.43;0.57;;;27.80;55.30;;;;;;4128036;28;20100;-45
2022/11/14 07:06:06;;;;;;;9.35;1.20;;;27.80;55.30;;;;;;4133058;28;20187;-57
2022/11/14 07:08:29;;;;;;;7.38;0.85;;;27.80;55.50;;;;;;4130139;28;20458;-48
2022/11/14 07:10:51;;;;;;;2.70;0.85;;;27.90;55.40;;;;;;4113740;28;20093;-49
2022/11/14 07:13:14;;;;;;;2.75;0.80;;;27.90;52.90;;;;;;4126517;28;20104;-49
2022/11/14 07:15:37;;;;;;;3.35;1.15;;;28.00;51.80;;;;;;4127383;28;20367;-49
2022/11/14 07:17:59;;;;;;;2.87;0.83;;;28.00;51.00;;;;;;4128066;28;20100;-52
2022/11/14 07:20:22;;;;;;;3.80;0.80;;;28.00;50.50;;;;;;4126277;28;20793;-51
2022/11/14 07:22:47;;;;;;;1.23;0.70;;;28.00;50.50;;;;;;4128022;28;20185;-53
2022/11/14 07:25:10;;;;;;;1.13;0.50;;;28.00;50.40;;;;;;4131361;28;20053;-48
2022/11/14 07:27:32;;;;;;;0.90;0.50;;;28.00;50.70;;;;;;4128104;28;20101;-48
2022/11/14 07:29:55;;;;;;;0.82;0.50;;;27.90;50.80;;;;;;4128680;28;20749;-53
2022/11/14 07:32:17;;;;;;;0.45;0.40;;;27.90;50.60;;;;;;4130976;28;20041;-50
2022/11/14 07:34:40;;;;;;;1.50;0.60;;;27.90;50.60;;;;;;4129400;28;20037;-52
2022/11/14 07:37:02;;;;;;;2.75;0.70;;;27.90;50.40;;;;;;4135064;28;20044;-50
2022/11/14 07:39:25;;;;;;;1.13;0.40;;;27.80;50.20;;;;;;4130202;28;20057;-50
2022/11/14 07:41:47;;;;;;;1.05;0.40;;;27.80;50.20;;;;;;4130324;28;20038;-50
2022/11/14 07:44:10;;;;;;;0.57;0.40;;;27.80;50.20;;;;;;4132395;28;20564;-54
2022/11/14 07:46:32;;;;;;;0.68;0.40;;;27.80;50.30;;;;;;4128914;28;20646;-52
2022/11/14 07:48:55;;;;;;;1.13;0.43;;;27.80;50.70;;;;;;4134433;28;20061;-55
2022/11/14 07:51:19;;;;;;;2.10;0.60;;;27.70;50.60;;;;;;4132104;28;20054;-56
2022/11/14 07:53:42;;;;;;;2.15;0.43;;;27.80;50.70;;;;;;4134923;28;20034;-52
2022/11/14 07:56:09;;;;;;;0.77;0.47;;;27.80;50.20;;;;;;4130333;28;20061;-51
2022/11/14 07:58:34;;;;;;;1.02;0.40;;;27.70;50.60;;;;;;4133824;28;20045;-46
2022/11/14 08:00:59;;;;;;;3.00;0.60;;;27.70;49.80;;;;;;4131139;28;20664;-43
2022/11/14 08:03:22;;;;;;;4.30;0.52;;;27.70;50.60;;;;;;4127649;28;20558;-44
2022/11/14 08:05:44;;;;;;;1.15;0.40;;;27.70;51.00;;;;;;4128475;28;20499;-45
2022/11/14 08:08:07;;;;;;;1.90;0.60;;;27.70;51.70;;;;;;4133557;28;20062;-47
2022/11/14 08:10:29;;;;;;;2.42;0.55;;;27.70;52.30;;;;;;4131073;28;20556;-48
2022/11/14 08:13:00;;;;;;;0.60;0.47;;;27.80;52.70;;;;;;4132762;28;20128;-45
2022/11/14 08:15:22;;;;;;;1.05;0.47;;;27.80;52.90;;;;;;4132746;28;20473;-48
2022/11/14 08:17:45;;;;;;;0.70;0.25;;;27.80;53.00;;;;;;4120231;28;20034;-45
2022/11/14 08:20:10;;;;;;;2.63;0.52;;;27.80;53.10;;;;;;4122259;28;20054;-49
2022/11/14 08:22:36;;;;;;;2.33;0.50;;;27.80;53.10;;;;;;4124005;28;20042;-46
2022/11/14 08:24:58;;;;;;;4.00;0.80;;;27.90;53.10;;;;;;4114605;28;20539;-46
2022/11/14 08:27:21;;;;;;;0.45;0.40;;;27.80;53.10;;;;;;4131346;28;20037;-47
2022/11/14 08:29:43;;;;;;;2.72;0.82;;;27.80;53.00;;;;;;4130571;28;20751;-49
2022/11/14 08:32:06;;;;;;;5.45;2.20;;;27.80;50.80;;;;;;4135106;28;20108;-46
2022/11/14 08:34:29;;;;;;;8.00;2.90;;;27.80;50.00;;;;;;4132693;28;20050;-44
2022/11/14 08:36:51;;;;;;;7.07;2.60;;;27.70;49.60;;;;;;4128236;28;20477;-46
2022/11/14 08:39:14;;;;;;;6.20;3.03;;;27.70;49.50;;;;;;4129998;28;20045;-51
2022/11/14 08:41:36;;;;;;;4.07;1.88;;;27.70;49.60;;;;;;4134445;28;20474;-51
2022/11/14 08:43:59;;;;;;;5.53;1.90;;;27.60;49.60;;;;;;4130982;28;20112;-49
2022/11/14 08:46:21;;;;;;;7.93;1.90;;;27.60;49.40;;;;;;4126495;28;20034;-45
2022/11/14 08:48:44;;;;;;;4.28;1.63;;;27.60;49.20;;;;;;4125400;28;20042;-49
2022/11/14 08:51:07;;;;;;;5.43;2.00;;;27.50;49.50;;;;;;4128604;28;20407;-42
2022/11/14 08:53:29;;;;;;;5.60;1.80;;;27.50;49.80;;;;;;4119828;28;20034;-46
2022/11/14 08:55:52;;;;;;;5.45;1.55;;;27.50;50.00;;;;;;4127923;28;20034;-48
2022/11/14 08:58:15;;;;;;;3.08;1.38;;;27.50;50.20;;;;;;4127533;28;20498;-50
2022/11/14 09:00:38;;;;;;;5.93;1.30;;;27.50;50.60;;;;;;4123082;28;20532;-46
2022/11/14 09:03:00;;;;;;;5.30;1.40;;;27.50;50.90;;;;;;4128364;28;20066;-48
2022/11/14 09:05:23;;;;;;;4.57;1.40;;;27.50;51.10;;;;;;4126492;28;20065;-46
2022/11/14 09:07:45;;;;;;;8.95;1.30;;;27.50;51.30;;;;;;4126043;28;20033;-44
2022/11/14 09:10:08;;;;;;;6.88;1.30;;;27.50;51.70;;;;;;4122678;28;20077;-47
2022/11/14 09:12:31;;;;;;;4.13;1.13;;;27.50;52.80;;;;;;4124273;28;20038;-51
2022/11/14 09:14:53;;;;;;;4.63;1.38;;;27.40;53.30;;;;;;4122996;28;20038;-49
2022/11/14 09:17:16;;;;;;;2.05;0.73;;;27.30;53.60;;;;;;4124426;28;20034;-51
2022/11/14 09:19:39;;;;;;;4.35;1.15;;;27.30;53.80;;;;;;4121428;28;20578;-48
2022/11/14 09:22:01;;;;;;;2.55;0.90;;;27.20;53.90;;;;;;4123438;28;20414;-49
2022/11/14 09:24:24;;;;;;;5.13;0.80;;;27.20;53.90;;;;;;4124997;28;20034;-51
2022/11/14 09:26:48;;;;;;;3.67;1.13;;;27.20;54.10;;;;;;4106496;28;20674;-53
2022/11/14 09:29:11;;;;;;;3.60;0.73;;;27.20;54.10;;;;;;4106493;28;20056;-45
2022/11/14 09:31:33;;;;;;;3.63;0.88;;;27.20;54.10;;;;;;4104165;28;20034;-51
2022/11/14 09:33:56;;;;;;;4.60;0.90;;;27.20;54.10;;;;;;4102425;28;20599;-49
2022/11/14 09:36:18;;;;;;;1.98;0.60;;;27.20;54.30;;;;;;4106080;28;20033;-51
2022/11/14 09:38:43;;;;;;;1.58;0.63;;;27.20;54.20;;;;;;4107058;28;20830;-48
2022/11/14 09:41:26;;;;;;;0.85;0.47;;;27.20;54.30;;;;;;4114099;28;20090;-54
2022/11/14 09:44:34;;;;;;;2.70;0.70;;;27.20;54.40;;;;;;4106500;28;20034;-50
2022/11/14 09:47:09;;;;;;;1.23;0.47;;;27.20;54.30;;;;;;4082345;28;20302;-47
2022/11/14 09:49:42;;;;;;;1.83;0.70;;;27.20;54.40;;;;;;4118347;28;20109;-52
2022/11/14 09:52:30;;;;;;;2.65;0.70;;;27.20;54.30;;;;;;4109203;28;20039;-51
2022/11/14 09:55:11;;;;;;;1.60;0.57;;;27.10;53.10;;;;;;4104652;28;20039;-52
2022/11/14 09:57:34;;;;;;;4.22;0.80;;;27.10;53.00;;;;;;4110359;28;20046;-52
2022/11/14 09:59:57;;;;;;;5.97;1.23;;;27.10;53.30;;;;;;4108080;28;20038;-47
2022/11/14 10:02:31;;;;;;;4.25;0.80;;;27.10;53.40;;;;;;4109383;28;20065;-52
2022/11/14 10:05:00;;;;;;;1.80;0.90;;;27.10;54.10;;;;;;4107374;28;20092;-53
2022/11/14 10:07:39;;;;;;;3.15;0.60;;;27.10;53.70;;;;;;4105906;28;20493;-50
2022/11/14 10:10:13;;;;;;;1.08;0.45;;;27.00;53.70;;;;;;4105976;28;20164;-48
2022/11/14 10:12:59;;;;;;;2.78;0.47;;;27.00;53.90;;;;;;4104104;28;20456;-51
2022/11/14 10:15:32;;;;;;;1.42;0.68;;;27.00;53.80;;;;;;4108589;28;20097;-50
2022/11/14 10:18:11;;;;;;;0.40;0.38;;;27.00;53.80;;;;;;4104894;28;20042;-49
2022/11/14 10:20:42;;;;;;;1.10;0.38;;;27.00;53.80;;;;;;4105971;28;20053;-48
2022/11/14 10:23:29;;;;;;;0.60;0.30;;;27.00;53.90;;;;;;4108599;28;20088;-47
2022/11/14 10:26:12;;;;;;;1.10;0.40;;;27.00;53.90;;;;;;4115412;28;20050;-43
2022/11/14 10:28:48;;;;;;;0.40;0.30;;;27.00;54.00;;;;;;4119014;28;20492;-48
2022/11/14 10:32:02;;;;;;;2.38;0.73;;;26.90;54.10;;;;;;4123654;28;20275;-46
2022/11/14 10:34:51;;;;;;;0.95;0.30;;;27.00;54.30;;;;;;4067334;29;20460;-50
2022/11/14 10:37:51;;;;;;;4.45;0.80;;;27.00;54.30;;;;;;4071942;28;20047;-49
2022/11/14 10:40:36;;;;;;;2.58;0.30;;;27.00;54.20;;;;;;4035748;29;20092;-48
2022/11/14 10:43:23;;;;;;;2.03;0.60;;;27.00;54.20;;;;;;4117931;28;20467;-51
2022/11/14 10:46:09;;;;;;;1.52;0.30;;;27.00;54.20;;;;;;4120723;28;20073;-49
2022/11/14 10:48:47;;;;;;;1.05;0.30;;;27.00;54.10;;;;;;4117935;28;20046;-45
2022/11/14 10:51:34;;;;;;;3.40;0.50;;;27.00;54.10;;;;;;4120048;28;20469;-43
2022/11/14 10:54:27;;;;;;;0.32;0.22;;;27.00;54.10;;;;;;4120476;28;20038;-46
2022/11/14 10:56:53;;;;;;;0.68;0.50;;;27.00;54.30;;;;;;4125420;28;20634;-48
2022/11/14 10:59:15;;;;;;;0.45;0.30;;;27.00;53.60;;;;;;4121697;28;20549;-51
2022/11/14 11:01:44;;;;;;;0.90;0.25;;;26.90;52.90;;;;;;4124185;28;20034;-48
2022/11/14 11:04:21;;;;;;;0.22;0.20;;;26.90;52.50;;;;;;4120981;28;20034;-50
2022/11/14 11:06:44;;;;;;;1.05;0.38;;;26.80;52.30;;;;;;4123214;28;20030;-45
2022/11/14 11:12:00;;;;;;;2.05;0.77;;;26.70;52.40;;;;;;4122748;28;20042;-45
2022/11/14 11:14:23;;;;;;;3.03;2.13;;;26.80;52.80;;;;;;4106286;28;20472;-46
2022/11/14 11:16:47;;;;;;;7.88;0.80;;;26.70;53.00;;;;;;4122920;28;20034;-49
2022/11/14 11:19:26;;;;;;;17.42;1.85;;;26.70;53.40;;;;;;4119995;28;20046;-55
2022/11/14 11:21:51;;;;;;;18.45;1.90;;;26.70;53.80;;;;;;4130867;28;20041;-49
2022/11/14 11:24:34;;;;;;;22.33;1.60;;;26.80;53.40;;;;;;4125887;28;20041;-53
2022/11/14 11:27:25;;;;;;;26.92;2.33;;;26.80;53.90;;;;;;4125529;28;20057;-46
2022/11/14 11:30:08;;;;;;;15.93;2.03;;;26.80;54.50;;;;;;4125943;28;20803;-53
2022/11/14 11:32:30;;;;;;;14.93;1.55;;;26.80;54.80;;;;;;4126194;28;20478;-51
2022/11/14 11:34:53;;;;;;;34.30;3.05;;;26.90;55.10;;;;;;4126351;28;20489;-48
2022/11/14 11:37:39;;;;;;;25.50;2.83;;;26.80;55.60;;;;;;4124715;28;20129;-43
2022/11/14 11:40:06;;;;;;;52.95;5.55;;;26.80;55.90;;;;;;4125392;28;20542;-48
2022/11/14 11:42:38;;;;;;;49.42;5.28;;;26.80;55.90;;;;;;4127785;28;20038;-49
2022/11/14 11:45:05;;;;;;;23.83;3.30;;;26.80;56.20;;;;;;4128797;28;20045;-47
2022/11/14 11:47:32;;;;;;;17.13;2.92;;;26.80;56.10;;;;;;4131152;28;20030;-49
2022/11/14 11:49:58;;;;;;;10.55;2.47;;;26.80;56.00;;;;;;4131593;28;20553;-45
2022/11/14 11:52:20;;;;;;;12.55;1.98;;;26.80;56.10;;;;;;4124975;28;20454;-45
2022/11/14 11:55:04;;;;;;;10.85;1.77;;;26.80;55.90;;;;;;4121492;28;20425;-46
2022/11/14 11:57:34;;;;;;;4.78;1.25;;;26.80;56.00;;;;;;4125423;28;20084;-43
2022/11/14 12:00:13;;;;;;;9.25;2.00;;;26.80;56.00;;;;;;4123364;28;20030;-42
2022/11/14 12:02:42;;;;;;;12.25;1.30;;;26.80;55.90;;;;;;4127054;28;20121;-47
2022/11/14 12:05:05;;;;;;;5.55;1.35;;;26.80;56.00;;;;;;4128273;28;20034;-45
2022/11/14 12:07:37;;;;;;;10.85;2.03;;;26.80;56.00;;;;;;4121142;28;20033;-54
2022/11/14 12:10:12;;;;;;;4.55;0.90;;;26.80;56.00;;;;;;4121738;28;20116;-50
2022/11/14 12:12:43;;;;;;;3.72;0.98;;;26.80;55.90;;;;;;4124297;28;20034;-49
2022/11/14 12:15:11;;;;;;;5.63;1.00;;;26.80;55.80;;;;;;4122523;28;20532;-44
2022/11/14 12:18:06;;;;;;;4.47;1.25;;;26.80;55.80;;;;;;4123825;28;20089;-42
2022/11/14 12:20:41;;;;;;;3.78;1.33;;;26.80;55.70;;;;;;4119237;28;20030;-44
2022/11/14 12:23:23;;;;;;;6.35;0.55;;;26.80;55.60;;;;;;4121091;28;20048;-47
2022/11/14 12:26:06;;;;;;;4.35;0.60;;;26.70;55.60;;;;;;4122797;28;20049;-45
2022/11/14 12:28:48;;;;;;;4.65;0.63;;;26.70;55.60;;;;;;4109211;28;20134;-53
2022/11/14 12:31:15;;;;;;;5.28;0.80;;;26.70;55.50;;;;;;4124143;28;20056;-47
2022/11/14 12:33:43;;;;;;;7.30;0.80;;;26.70;55.40;;;;;;4124471;28;20057;-50
2022/11/14 12:36:10;;;;;;;4.53;0.90;;;26.70;55.50;;;;;;4133412;28;20418;-47
2022/11/14 12:38:51;;;;;;;17.48;1.38;;;26.70;55.40;;;;;;4132870;28;20064;-49
2022/11/14 12:41:27;;;;;;;5.28;0.70;;;26.70;55.30;;;;;;4133260;28;20336;-47
2022/11/14 12:43:50;;;;;;;5.63;0.85;;;26.70;55.30;;;;;;4132399;28;20052;-47
2022/11/14 12:46:13;;;;;;;4.22;0.60;;;26.70;55.00;;;;;;4129976;28;20522;-44